sensor_id;sensor_type;location;lat;lon;timestamp;pressure;altitude;pressure_sealevel;temperature;humidity
71966;BME280;59836;52.132;5.442;2022-08-01T00:01:56;101703.84;;;18.63;91.00
71966;BME280;59836;52.132;5.442;2022-08-01T00:04:22;101694.81;;;18.62;90.84
71966;BME280;59836;52.132;5.442;2022-08-01T00:06:49;101696.72;;;18.62;90.86
71966;BME280;59836;52.132;5.442;2022-08-01T00:09:15;101697.84;;;18.61;91.04
71966;BME280;59836;52.132;5.442;2022-08-01T00:11:49;101703.66;;;18.59;90.97
71966;BME280;59836;52.132;5.442;2022-08-01T00:14:25;101698.97;;;18.59;90.94
71966;BME280;59836;52.132;5.442;2022-08-01T00:16:58;101697.34;;;18.58;91.04
71966;BME280;59836;52.132;5.442;2022-08-01T00:19:32;101706.69;;;18.57;91.17
71966;BME280;59836;52.132;5.442;2022-08-01T00:21:59;101696.03;;;18.56;90.87
71966;BME280;59836;52.132;5.442;2022-08-01T00:24:25;101701.19;;;18.57;91.17
71966;BME280;59836;52.132;5.442;2022-08-01T00:26:52;101701.19;;;18.57;91.27
71966;BME280;59836;52.132;5.442;2022-08-01T00:29:18;101701.53;;;18.56;91.03
71966;BME280;59836;52.132;5.442;2022-08-01T00:32:05;101705.06;;;18.56;90.99
71966;BME280;59836;52.132;5.442;2022-08-01T00:34:32;101705.06;;;18.56;90.66
71966;BME280;59836;52.132;5.442;2022-08-01T00:36:59;101701.84;;;18.54;90.69
71966;BME280;59836;52.132;5.442;2022-08-01T00:39:25;101704.06;;;18.52;90.83
71966;BME280;59836;52.132;5.442;2022-08-01T00:41:52;101704.06;;;18.52;90.61
71966;BME280;59836;52.132;5.442;2022-08-01T00:44:27;101704.69;;;18.49;91.26
71966;BME280;59836;52.132;5.442;2022-08-01T00:46:53;101705.47;;;18.50;91.08
71966;BME280;59836;52.132;5.442;2022-08-01T00:49:20;101697.56;;;18.48;91.25
71966;BME280;59836;52.132;5.442;2022-08-01T00:51:47;101693.69;;;18.49;91.26
71966;BME280;59836;52.132;5.442;2022-08-01T00:54:15;101694.28;;;18.46;91.25
71966;BME280;59836;52.132;5.442;2022-08-01T00:56:43;101704.16;;;18.47;91.26
71966;BME280;59836;52.132;5.442;2022-08-01T00:59:11;101706.91;;;18.47;91.38
71966;BME280;59836;52.132;5.442;2022-08-01T01:01:40;101706.91;;;18.47;91.37
71966;BME280;59836;52.132;5.442;2022-08-01T01:04:12;101711.56;;;18.47;91.20
71966;BME280;59836;52.132;5.442;2022-08-01T01:06:59;101709.66;;;18.47;91.14
71966;BME280;59836;52.132;5.442;2022-08-01T01:09:36;101710.78;;;18.46;91.33
71966;BME280;59836;52.132;5.442;2022-08-01T01:12:27;101711.91;;;18.45;91.39
71966;BME280;59836;52.132;5.442;2022-08-01T01:15:08;101704.44;;;18.46;91.40
71966;BME280;59836;52.132;5.442;2022-08-01T01:17:39;101706.41;;;18.45;91.14
71966;BME280;59836;52.132;5.442;2022-08-01T01:20:16;101706.41;;;18.45;91.43
71966;BME280;59836;52.132;5.442;2022-08-01T01:25:44;101704.16;;;18.47;91.57
71966;BME280;59836;52.132;5.442;2022-08-01T01:28:40;101706.91;;;18.47;91.44
71966;BME280;59836;52.132;5.442;2022-08-01T01:31:11;101701.41;;;18.47;91.23
71966;BME280;59836;52.132;5.442;2022-08-01T01:33:40;101701.41;;;18.47;91.29
71966;BME280;59836;52.132;5.442;2022-08-01T01:36:13;101700.59;;;18.47;91.63
71966;BME280;59836;52.132;5.442;2022-08-01T01:38:42;101703.66;;;18.45;91.56
71966;BME280;59836;52.132;5.442;2022-08-01T01:41:12;101701.72;;;18.46;91.62
71966;BME280;59836;52.132;5.442;2022-08-01T01:43:40;101701.19;;;18.43;91.82
71966;BME280;59836;52.132;5.442;2022-08-01T01:46:09;101701.50;;;18.42;91.50
71966;BME280;59836;52.132;5.442;2022-08-01T01:48:37;101697.13;;;18.41;91.74
71966;BME280;59836;52.132;5.442;2022-08-01T01:51:05;101706.16;;;18.41;91.56
71966;BME280;59836;52.132;5.442;2022-08-01T01:53:33;101706.69;;;18.43;91.68
71966;BME280;59836;52.132;5.442;2022-08-01T01:56:02;101707.00;;;18.42;91.68
71966;BME280;59836;52.132;5.442;2022-08-01T01:58:31;101710.25;;;18.44;91.61
71966;BME280;59836;52.132;5.442;2022-08-01T02:00:59;101709.44;;;18.43;91.67
71966;BME280;59836;52.132;5.442;2022-08-01T02:03:30;101704.25;;;18.42;91.66
71966;BME280;59836;52.132;5.442;2022-08-01T02:05:59;101709.75;;;18.42;92.07
71966;BME280;59836;52.132;5.442;2022-08-01T02:08:26;101713.63;;;18.41;92.03
71966;BME280;59836;52.132;5.442;2022-08-01T02:10:57;101705.88;;;18.43;92.10
71966;BME280;59836;52.132;5.442;2022-08-01T02:13:46;101706.16;;;18.41;91.78
71966;BME280;59836;52.132;5.442;2022-08-01T02:16:15;101707.00;;;18.42;91.82
71966;BME280;59836;52.132;5.442;2022-08-01T02:18:43;101708.13;;;18.41;91.96
71966;BME280;59836;52.132;5.442;2022-08-01T02:21:12;101702.63;;;18.41;91.99
71966;BME280;59836;52.132;5.442;2022-08-01T02:23:40;101709.75;;;18.42;91.92
71966;BME280;59836;52.132;5.442;2022-08-01T02:26:13;101707.00;;;18.42;91.81
71966;BME280;59836;52.132;5.442;2022-08-01T02:28:47;101703.94;;;18.43;91.73
71966;BME280;59836;52.132;5.442;2022-08-01T02:31:19;101712.19;;;18.43;91.97
71966;BME280;59836;52.132;5.442;2022-08-01T02:33:55;101709.75;;;18.42;91.97
71966;BME280;59836;52.132;5.442;2022-08-01T02:36:26;101715.25;;;18.42;92.04
71966;BME280;59836;52.132;5.442;2022-08-01T02:39:00;101710.56;;;18.42;91.83
71966;BME280;59836;52.132;5.442;2022-08-01T02:41:28;101704.25;;;18.42;92.01
71966;BME280;59836;52.132;5.442;2022-08-01T02:43:59;101713.63;;;18.41;92.00
71966;BME280;59836;52.132;5.442;2022-08-01T02:46:33;101717.16;;;18.41;92.07
71966;BME280;59836;52.132;5.442;2022-08-01T02:49:02;101715.25;;;18.42;91.97
71966;BME280;59836;52.132;5.442;2022-08-01T02:51:30;101714.72;;;18.40;91.95
71966;BME280;59836;52.132;5.442;2022-08-01T02:53:59;101714.72;;;18.40;92.05
71966;BME280;59836;52.132;5.442;2022-08-01T02:56:28;101720.22;;;18.40;91.81
71966;BME280;59836;52.132;5.442;2022-08-01T02:59:04;101716.97;;;18.38;92.12
71966;BME280;59836;52.132;5.442;2022-08-01T03:01:33;101720.81;;;18.37;92.13
71966;BME280;59836;52.132;5.442;2022-08-01T03:04:07;101721.09;;;18.35;92.00
71966;BME280;59836;52.132;5.442;2022-08-01T03:06:35;101717.56;;;18.35;92.23
71966;BME280;59836;52.132;5.442;2022-08-01T03:09:04;101712.06;;;18.35;92.26
71966;BME280;59836;52.132;5.442;2022-08-01T03:11:33;101710.13;;;18.35;92.26
71966;BME280;59836;52.132;5.442;2022-08-01T03:14:02;101704.13;;;18.33;92.03
71966;BME280;59836;52.132;5.442;2022-08-01T03:16:32;101700.56;;;18.33;92.22
71966;BME280;59836;52.132;5.442;2022-08-01T03:19:01;101693.44;;;18.32;92.26
71966;BME280;59836;52.132;5.442;2022-08-01T03:21:29;101704.44;;;18.32;92.35
71966;BME280;59836;52.132;5.442;2022-08-01T03:23:59;101709.94;;;18.32;92.06
71966;BME280;59836;52.132;5.442;2022-08-01T03:26:28;101704.44;;;18.32;92.07
71966;BME280;59836;52.132;5.442;2022-08-01T03:28:57;101709.09;;;18.31;92.58
71966;BME280;59836;52.132;5.442;2022-08-01T03:31:25;101718.16;;;18.32;92.32
71966;BME280;59836;52.132;5.442;2022-08-01T03:33:52;101715.41;;;18.32;92.17
71966;BME280;59836;52.132;5.442;2022-08-01T03:36:25;101709.94;;;18.32;92.31
71966;BME280;59836;52.132;5.442;2022-08-01T03:38:56;101713.78;;;18.31;92.03
71966;BME280;59836;52.132;5.442;2022-08-01T03:41:26;101720.41;;;18.29;92.32
71966;BME280;59836;52.132;5.442;2022-08-01T03:44:15;101716.03;;;18.28;92.05
71966;BME280;59836;52.132;5.442;2022-08-01T03:46:45;101716.03;;;18.28;91.70
71966;BME280;59836;52.132;5.442;2022-08-01T03:49:24;101716.03;;;18.28;91.53
71966;BME280;59836;52.132;5.442;2022-08-01T03:51:52;101710.53;;;18.28;91.64
71966;BME280;59836;52.132;5.442;2022-08-01T03:54:21;101717.94;;;18.28;91.69
71966;BME280;59836;52.132;5.442;2022-08-01T03:56:51;101722.13;;;18.25;91.50
71966;BME280;59836;52.132;5.442;2022-08-01T03:59:18;101724.03;;;18.25;91.52
71966;BME280;59836;52.132;5.442;2022-08-01T04:01:47;101726.56;;;18.21;91.07
71966;BME280;59836;52.132;5.442;2022-08-01T04:04:14;101730.44;;;18.20;91.37
71966;BME280;59836;52.132;5.442;2022-08-01T04:06:41;101725.53;;;18.17;91.33
71966;BME280;59836;52.132;5.442;2022-08-01T04:09:11;101723.09;;;18.15;91.14
71966;BME280;59836;52.132;5.442;2022-08-01T04:11:40;101722.88;;;18.12;91.12
71966;BME280;59836;52.132;5.442;2022-08-01T04:14:07;101717.38;;;18.12;91.07
71966;BME280;59836;52.132;5.442;2022-08-01T04:16:34;101722.88;;;18.12;91.19
71966;BME280;59836;52.132;5.442;2022-08-01T04:19:01;101725.09;;;18.10;91.09
71966;BME280;59836;52.132;5.442;2022-08-01T04:21:31;101733.34;;;18.10;91.39
71966;BME280;59836;52.132;5.442;2022-08-01T04:24:01;101732.81;;;18.08;91.62
71966;BME280;59836;52.132;5.442;2022-08-01T04:26:31;101742.69;;;18.09;91.72
71966;BME280;59836;52.132;5.442;2022-08-01T04:29:00;101739.03;;;18.13;91.75
71966;BME280;59836;52.132;5.442;2022-08-01T04:31:29;101736.28;;;18.13;91.83
71966;BME280;59836;52.132;5.442;2022-08-01T04:33:59;101744.25;;;18.15;91.82
71966;BME280;59836;52.132;5.442;2022-08-01T04:36:28;101754.13;;;18.16;91.79
71966;BME280;59836;52.132;5.442;2022-08-01T04:38:59;101743.94;;;18.17;91.69
71966;BME280;59836;52.132;5.442;2022-08-01T04:41:26;101756.84;;;18.16;91.30
71966;BME280;59836;52.132;5.442;2022-08-01T04:43:54;101747.50;;;18.17;91.38
71966;BME280;59836;52.132;5.442;2022-08-01T04:46:22;101756.84;;;18.16;91.09
71966;BME280;59836;52.132;5.442;2022-08-01T04:48:49;101760.91;;;18.19;90.77
71966;BME280;59836;52.132;5.442;2022-08-01T04:51:17;101764.56;;;18.14;90.73
71966;BME280;59836;52.132;5.442;2022-08-01T04:53:44;101762.44;;;18.11;90.74
71966;BME280;59836;52.132;5.442;2022-08-01T04:56:12;101756.41;;;18.09;90.99
71966;BME280;59836;52.132;5.442;2022-08-01T04:58:40;101765.75;;;18.08;90.60
71966;BME280;59836;52.132;5.442;2022-08-01T05:01:07;101772.97;;;18.04;90.86
71966;BME280;59836;52.132;5.442;2022-08-01T05:03:34;101777.34;;;18.05;91.03
71966;BME280;59836;52.132;5.442;2022-08-01T05:06:04;101776.81;;;18.03;91.03
71966;BME280;59836;52.132;5.442;2022-08-01T05:08:30;101775.72;;;18.04;91.41
71966;BME280;59836;52.132;5.442;2022-08-01T05:10:57;101778.97;;;18.06;91.01
71966;BME280;59836;52.132;5.442;2022-08-01T05:13:23;101778.75;;;18.02;90.65
71966;BME280;59836;52.132;5.442;2022-08-01T05:15:50;101779.56;;;18.03;90.67
71966;BME280;59836;52.132;5.442;2022-08-01T05:18:16;101788.91;;;18.02;90.38
71966;BME280;59836;52.132;5.442;2022-08-01T05:20:53;101785.84;;;18.03;90.67
71966;BME280;59836;52.132;5.442;2022-08-01T05:23:19;101778.75;;;18.02;90.38
71966;BME280;59836;52.132;5.442;2022-08-01T05:26:06;101784.00;;;17.98;90.43
71966;BME280;59836;52.132;5.442;2022-08-01T05:28:32;101788.97;;;17.96;90.21
71966;BME280;59836;52.132;5.442;2022-08-01T05:30:58;101790.06;;;17.95;90.80
71966;BME280;59836;52.132;5.442;2022-08-01T05:33:25;101794.00;;;17.89;90.54
71966;BME280;59836;52.132;5.442;2022-08-01T05:35:51;101791.25;;;17.89;90.97
71966;BME280;59836;52.132;5.442;2022-08-01T05:38:18;101797.34;;;17.86;90.85
71966;BME280;59836;52.132;5.442;2022-08-01T05:40:44;101790.22;;;17.85;90.69
71966;BME280;59836;52.132;5.442;2022-08-01T05:43:11;101794.59;;;17.86;90.90
71966;BME280;59836;52.132;5.442;2022-08-01T05:45:37;101797.34;;;17.86;91.23
71966;BME280;59836;52.132;5.442;2022-08-01T05:48:04;101804.47;;;17.87;91.10
71966;BME280;59836;52.132;5.442;2022-08-01T05:50:30;101807.19;;;17.87;91.47
71966;BME280;59836;52.132;5.442;2022-08-01T05:52:57;101801.44;;;17.89;90.95
71966;BME280;59836;52.132;5.442;2022-08-01T05:55:23;101800.06;;;17.86;90.70
71966;BME280;59836;52.132;5.442;2022-08-01T05:57:49;101794.91;;;17.84;90.95
71966;BME280;59836;52.132;5.442;2022-08-01T06:00:16;101799.69;;;17.74;90.92
71966;BME280;59836;52.132;5.442;2022-08-01T06:02:43;101798.00;;;17.78;91.33
71966;BME280;59836;52.132;5.442;2022-08-01T06:05:10;101796.28;;;17.82;91.09
71966;BME280;59836;52.132;5.442;2022-08-01T06:07:38;101801.19;;;17.85;90.79
71966;BME280;59836;52.132;5.442;2022-08-01T06:10:06;101807.72;;;17.89;91.23
71966;BME280;59836;52.132;5.442;2022-08-01T06:12:33;101810.19;;;17.91;91.19
71966;BME280;59836;52.132;5.442;2022-08-01T06:15:01;101812.03;;;17.95;91.43
71966;BME280;59836;52.132;5.442;2022-08-01T06:17:28;101815.59;;;17.96;91.47
71966;BME280;59836;52.132;5.442;2022-08-01T06:19:54;101809.00;;;17.97;91.15
71966;BME280;59836;52.132;5.442;2022-08-01T06:22:21;101812.28;;;17.99;90.90
71966;BME280;59836;52.132;5.442;2022-08-01T06:24:47;101810.06;;;18.01;90.46
71966;BME280;59836;52.132;5.442;2022-08-01T06:27:14;101807.00;;;18.03;90.11
71966;BME280;59836;52.132;5.442;2022-08-01T06:29:47;101805.91;;;18.04;90.26
71966;BME280;59836;52.132;5.442;2022-08-01T06:32:22;101809.75;;;18.03;90.13
71966;BME280;59836;52.132;5.442;2022-08-01T06:34:53;101805.69;;;18.00;90.29
71966;BME280;59836;52.132;5.442;2022-08-01T06:37:21;101817.47;;;18.00;90.77
71966;BME280;59836;52.132;5.442;2022-08-01T06:39:47;101820.22;;;18.00;90.49
71966;BME280;59836;52.132;5.442;2022-08-01T06:42:15;101815.56;;;18.01;90.75
71966;BME280;59836;52.132;5.442;2022-08-01T06:44:42;101821.84;;;18.02;90.95
71966;BME280;59836;52.132;5.442;2022-08-01T06:47:08;101817.47;;;18.00;91.31
71966;BME280;59836;52.132;5.442;2022-08-01T06:49:35;101822.97;;;18.00;91.35
71966;BME280;59836;52.132;5.442;2022-08-01T06:52:01;101831.19;;;18.00;91.67
71966;BME280;59836;52.132;5.442;2022-08-01T06:54:33;101832.84;;;18.02;91.63
71966;BME280;59836;52.132;5.442;2022-08-01T06:57:00;101831.72;;;18.03;91.84
71966;BME280;59836;52.132;5.442;2022-08-01T06:59:26;101836.09;;;18.04;91.63
71966;BME280;59836;52.132;5.442;2022-08-01T07:01:53;101841.59;;;18.04;91.63
71966;BME280;59836;52.132;5.442;2022-08-01T07:04:19;101840.75;;;18.03;91.81
71966;BME280;59836;52.132;5.442;2022-08-01T07:06:47;101830.59;;;18.04;91.60
71966;BME280;59836;52.132;5.442;2022-08-01T07:09:13;101825.13;;;18.04;91.64
71966;BME280;59836;52.132;5.442;2022-08-01T07:11:40;101838.00;;;18.03;91.63
71966;BME280;59836;52.132;5.442;2022-08-01T07:14:07;101839.97;;;18.03;91.58
71966;BME280;59836;52.132;5.442;2022-08-01T07:16:33;101840.53;;;17.99;91.57
71966;BME280;59836;52.132;5.442;2022-08-01T07:18:59;101844.97;;;17.95;91.77
71966;BME280;59836;52.132;5.442;2022-08-01T07:21:26;101847.13;;;17.98;92.04
71966;BME280;59836;52.132;5.442;2022-08-01T07:24:08;101846.03;;;17.99;91.77
71966;BME280;59836;52.132;5.442;2022-08-01T07:26:41;101844.38;;;17.98;92.11
71966;BME280;59836;52.132;5.442;2022-08-01T07:29:21;101845.22;;;17.99;91.89
71966;BME280;59836;52.132;5.442;2022-08-01T07:31:47;101857.03;;;17.99;92.01
71966;BME280;59836;52.132;5.442;2022-08-01T07:34:14;101852.59;;;17.98;91.87
71966;BME280;59836;52.132;5.442;2022-08-01T07:36:40;101855.09;;;18.00;92.30
71966;BME280;59836;52.132;5.442;2022-08-01T07:39:07;101849.31;;;18.02;92.25
71966;BME280;59836;52.132;5.442;2022-08-01T07:41:33;101858.66;;;18.00;92.14
71966;BME280;59836;52.132;5.442;2022-08-01T07:44:20;101857.53;;;18.02;91.99
71966;BME280;59836;52.132;5.442;2022-08-01T07:46:53;101869.03;;;18.04;91.87
71966;BME280;59836;52.132;5.442;2022-08-01T07:49:20;101873.50;;;17.99;91.71
71966;BME280;59836;52.132;5.442;2022-08-01T07:51:48;101875.13;;;18.00;91.88
71966;BME280;59836;52.132;5.442;2022-08-01T07:54:29;101872.94;;;17.97;91.71
71966;BME280;59836;52.132;5.442;2022-08-01T07:56:59;101873.59;;;17.89;91.20
71966;BME280;59836;52.132;5.442;2022-08-01T07:59:25;101877.44;;;17.88;91.31
71966;BME280;59836;52.132;5.442;2022-08-01T08:01:51;101875.22;;;17.90;91.68
71966;BME280;59836;52.132;5.442;2022-08-01T08:04:18;101885.63;;;17.93;91.73
71966;BME280;59836;52.132;5.442;2022-08-01T08:06:45;101883.44;;;17.90;91.54
71966;BME280;59836;52.132;5.442;2022-08-01T08:09:14;101895.53;;;17.89;91.87
71966;BME280;59836;52.132;5.442;2022-08-01T08:11:42;101890.31;;;17.93;91.87
71966;BME280;59836;52.132;5.442;2022-08-01T08:14:13;101888.94;;;17.90;90.91
71966;BME280;59836;52.132;5.442;2022-08-01T08:16:40;101888.41;;;17.88;90.24
71966;BME280;59836;52.132;5.442;2022-08-01T08:19:06;101897.81;;;17.82;90.08
71966;BME280;59836;52.132;5.442;2022-08-01T08:21:33;101902.44;;;17.87;90.75
71966;BME280;59836;52.132;5.442;2022-08-01T08:23:59;101903.72;;;17.94;91.07
71966;BME280;59836;52.132;5.442;2022-08-01T08:26:45;101900.69;;;17.96;90.63
71966;BME280;59836;52.132;5.442;2022-08-01T08:29:17;101906.16;;;18.01;90.24
71966;BME280;59836;52.132;5.442;2022-08-01T08:31:44;101904.50;;;18.00;90.42
71966;BME280;59836;52.132;5.442;2022-08-01T08:34:18;101906.16;;;18.01;89.38
71966;BME280;59836;52.132;5.442;2022-08-01T08:36:45;101913.00;;;17.98;89.69
71966;BME280;59836;52.132;5.442;2022-08-01T08:39:13;101918.72;;;18.02;89.34
71966;BME280;59836;52.132;5.442;2022-08-01T08:41:40;101909.31;;;18.08;89.88
71966;BME280;59836;52.132;5.442;2022-08-01T08:44:08;101913.03;;;18.18;89.88
71966;BME280;59836;52.132;5.442;2022-08-01T08:46:44;101915.97;;;18.26;89.16
71966;BME280;59836;52.132;5.442;2022-08-01T08:49:27;101918.19;;;18.24;89.20
71966;BME280;59836;52.132;5.442;2022-08-01T08:52:03;101924.72;;;18.28;88.81
71966;BME280;59836;52.132;5.442;2022-08-01T08:54:31;101919.50;;;18.27;87.86
71966;BME280;59836;52.132;5.442;2022-08-01T08:57:00;101925.25;;;18.31;88.15
71966;BME280;59836;52.132;5.442;2022-08-01T08:59:27;101925.75;;;18.33;87.14
71966;BME280;59836;52.132;5.442;2022-08-01T09:01:54;101929.38;;;18.28;86.92
71966;BME280;59836;52.132;5.442;2022-08-01T09:04:22;101924.28;;;18.21;86.77
71966;BME280;59836;52.132;5.442;2022-08-01T09:06:52;101936.31;;;18.25;87.66
71966;BME280;59836;52.132;5.442;2022-08-01T09:09:19;101936.50;;;18.29;87.56
71966;BME280;59836;52.132;5.442;2022-08-01T09:11:45;101935.13;;;18.32;86.06
71966;BME280;59836;52.132;5.442;2022-08-01T09:14:24;101938.97;;;18.31;84.80
71966;BME280;59836;52.132;5.442;2022-08-01T09:17:07;101951.22;;;18.38;84.72
71966;BME280;59836;52.132;5.442;2022-08-01T09:22:09;101943.81;;;18.39;83.18
71966;BME280;59836;52.132;5.442;2022-08-01T09:24:37;101954.28;;;18.37;82.71
71966;BME280;59836;52.132;5.442;2022-08-01T09:27:21;101952.56;;;18.41;82.21
71966;BME280;59836;52.132;5.442;2022-08-01T09:29:52;101951.91;;;18.49;83.95
71966;BME280;59836;52.132;5.442;2022-08-01T09:32:28;101950.09;;;18.58;85.31
71966;BME280;59836;52.132;5.442;2022-08-01T09:38:14;101962.56;;;18.70;83.79
71966;BME280;59836;52.132;5.442;2022-08-01T09:43:16;101960.94;;;18.69;81.76
71966;BME280;59836;52.132;5.442;2022-08-01T09:45:42;101952.41;;;18.70;82.27
71966;BME280;59836;52.132;5.442;2022-08-01T09:48:16;101964.22;;;18.71;82.17
71966;BME280;59836;52.132;5.442;2022-08-01T09:50:47;101966.69;;;18.72;83.11
71966;BME280;59836;52.132;5.442;2022-08-01T09:53:14;101966.88;;;18.76;83.19
71966;BME280;59836;52.132;5.442;2022-08-01T09:56:08;101963.78;;;18.83;82.47
71966;BME280;59836;52.132;5.442;2022-08-01T09:58:58;101965.63;;;18.87;82.57
71966;BME280;59836;52.132;5.442;2022-08-01T10:01:29;101970.50;;;18.91;80.13
71966;BME280;59836;52.132;5.442;2022-08-01T10:04:10;101969.72;;;18.90;80.28
71966;BME280;59836;52.132;5.442;2022-08-01T10:06:39;101974.31;;;18.95;77.11
71966;BME280;59836;52.132;5.442;2022-08-01T10:09:07;101969.28;;;19.02;77.90
71966;BME280;59836;52.132;5.442;2022-08-01T10:11:34;101970.22;;;19.11;79.54
71966;BME280;59836;52.132;5.442;2022-08-01T10:14:06;101965.66;;;19.21;80.63
71966;BME280;59836;52.132;5.442;2022-08-01T10:16:36;101971.38;;;19.24;78.35
71966;BME280;59836;52.132;5.442;2022-08-01T10:19:06;101968.94;;;19.23;77.53
71966;BME280;59836;52.132;5.442;2022-08-01T10:21:41;101966.19;;;19.23;76.42
71966;BME280;59836;52.132;5.442;2022-08-01T10:24:26;101975.47;;;19.27;75.11
71966;BME280;59836;52.132;5.442;2022-08-01T10:27:02;101964.91;;;19.34;75.51
71966;BME280;59836;52.132;5.442;2022-08-01T10:29:42;101976.53;;;19.45;76.52
71966;BME280;59836;52.132;5.442;2022-08-01T10:32:30;101964.53;;;19.55;72.89
71966;BME280;59836;52.132;5.442;2022-08-01T10:34:58;101965.56;;;19.59;75.12
71966;BME280;59836;52.132;5.442;2022-08-01T10:37:34;101967.66;;;19.62;71.42
71966;BME280;59836;52.132;5.442;2022-08-01T10:40:17;101959.94;;;19.64;72.44
71966;BME280;59836;52.132;5.442;2022-08-01T10:42:57;101969.81;;;19.65;74.25
71966;BME280;59836;52.132;5.442;2022-08-01T10:45:25;101968.59;;;19.71;71.56
71966;BME280;59836;52.132;5.442;2022-08-01T10:48:02;101969.84;;;19.79;70.37
71966;BME280;59836;52.132;5.442;2022-08-01T10:50:44;101962.91;;;19.82;69.72
71966;BME280;59836;52.132;5.442;2022-08-01T10:53:19;101959.63;;;19.80;69.57
71966;BME280;59836;52.132;5.442;2022-08-01T10:58:33;101962.28;;;19.85;72.95
71966;BME280;59836;52.132;5.442;2022-08-01T11:01:25;101958.50;;;19.81;70.44
71966;BME280;59836;52.132;5.442;2022-08-01T11:04:09;101966.97;;;19.70;73.55
71966;BME280;59836;52.132;5.442;2022-08-01T11:06:49;101962.91;;;19.68;72.83
71966;BME280;59836;52.132;5.442;2022-08-01T11:09:27;101967.06;;;19.65;72.52
71966;BME280;59836;52.132;5.442;2022-08-01T11:12:08;101974.28;;;19.61;74.82
71966;BME280;59836;52.132;5.442;2022-08-01T11:17:31;101961.69;;;19.60;73.53
71966;BME280;59836;52.132;5.442;2022-08-01T11:20:04;101976.84;;;19.57;72.42
71966;BME280;59836;52.132;5.442;2022-08-01T11:22:30;101970.22;;;19.58;70.79
71966;BME280;59836;52.132;5.442;2022-08-01T11:24:57;101961.03;;;19.63;70.09
71966;BME280;59836;52.132;5.442;2022-08-01T11:27:30;101966.34;;;19.73;72.44
71966;BME280;59836;52.132;5.442;2022-08-01T11:32:53;101980.38;;;19.91;72.67
71966;BME280;59836;52.132;5.442;2022-08-01T11:35:38;101989.66;;;19.95;70.44
71966;BME280;59836;52.132;5.442;2022-08-01T11:38:25;101986.91;;;19.95;70.56
71966;BME280;59836;52.132;5.442;2022-08-01T11:44:00;101983.63;;;19.93;70.64
71966;BME280;59836;52.132;5.442;2022-08-01T11:49:30;101986.59;;;20.11;72.21
71966;BME280;59836;52.132;5.442;2022-08-01T11:52:19;101977.00;;;20.22;68.46
71966;BME280;59836;52.132;5.442;2022-08-01T11:55:09;101976.38;;;20.25;68.65
71966;BME280;59836;52.132;5.442;2022-08-01T11:57:37;101982.69;;;20.26;64.03
71966;BME280;59836;52.132;5.442;2022-08-01T12:00:11;101981.38;;;20.23;68.07
71966;BME280;59836;52.132;5.442;2022-08-01T12:02:41;101985.16;;;20.27;68.21
71966;BME280;59836;52.132;5.442;2022-08-01T12:05:12;101990.13;;;20.39;66.33
71966;BME280;59836;52.132;5.442;2022-08-01T12:07:42;101982.59;;;20.45;68.83
71966;BME280;59836;52.132;5.442;2022-08-01T12:10:13;101990.22;;;20.48;66.76
71966;BME280;59836;52.132;5.442;2022-08-01T12:12:49;101990.41;;;20.52;67.52
71966;BME280;59836;52.132;5.442;2022-08-01T12:15:19;101992.47;;;20.46;64.36
71966;BME280;59836;52.132;5.442;2022-08-01T12:17:53;101995.34;;;20.41;61.38
71966;BME280;59836;52.132;5.442;2022-08-01T12:20:27;101993.50;;;20.36;61.07
71966;BME280;59836;52.132;5.442;2022-08-01T12:22:56;101988.38;;;20.43;60.79
71966;BME280;59836;52.132;5.442;2022-08-01T12:25:23;102000.41;;;20.47;65.00
71966;BME280;59836;52.132;5.442;2022-08-01T12:27:50;101991.84;;;20.49;63.09
71966;BME280;59836;52.132;5.442;2022-08-01T12:30:22;101998.78;;;20.60;63.29
71966;BME280;59836;52.132;5.442;2022-08-01T12:32:51;101997.53;;;20.67;62.29
71966;BME280;59836;52.132;5.442;2022-08-01T12:35:20;101995.59;;;20.67;60.58
71966;BME280;59836;52.132;5.442;2022-08-01T12:40:24;102000.97;;;20.86;58.74
71966;BME280;59836;52.132;5.442;2022-08-01T12:42:55;101987.56;;;20.93;57.50
71966;BME280;59836;52.132;5.442;2022-08-01T12:45:25;101999.09;;;20.96;58.22
71966;BME280;59836;52.132;5.442;2022-08-01T12:47:53;101983.53;;;21.00;55.17
71966;BME280;59836;52.132;5.442;2022-08-01T12:50:22;101995.69;;;20.99;55.55
71966;BME280;59836;52.132;5.442;2022-08-01T12:52:50;101989.06;;;21.00;55.79
71966;BME280;59836;52.132;5.442;2022-08-01T12:55:21;101988.31;;;21.08;53.44
71966;BME280;59836;52.132;5.442;2022-08-01T12:57:49;101989.63;;;21.11;55.74
71966;BME280;59836;52.132;5.442;2022-08-01T13:00:20;101990.44;;;21.11;55.17
71966;BME280;59836;52.132;5.442;2022-08-01T13:02:49;101991.53;;;21.01;54.42
71966;BME280;59836;52.132;5.442;2022-08-01T13:05:16;101989.94;;;20.86;54.88
71966;BME280;59836;52.132;5.442;2022-08-01T13:10:13;101986.41;;;20.94;57.30
71966;BME280;59836;52.132;5.442;2022-08-01T13:12:42;101997.59;;;21.12;56.26
71966;BME280;59836;52.132;5.442;2022-08-01T13:15:19;101984.50;;;21.18;54.15
71966;BME280;59836;52.132;5.442;2022-08-01T13:17:45;101995.34;;;21.14;54.97
71966;BME280;59836;52.132;5.442;2022-08-01T13:20:26;101991.31;;;21.20;54.79
71966;BME280;59836;52.132;5.442;2022-08-01T13:22:53;101991.34;;;21.29;54.10
71966;BME280;59836;52.132;5.442;2022-08-01T13:25:20;101985.91;;;21.38;53.66
71966;BME280;59836;52.132;5.442;2022-08-01T13:28:15;101980.69;;;21.36;52.98
71966;BME280;59836;52.132;5.442;2022-08-01T13:30:54;101984.78;;;21.39;54.41
71966;BME280;59836;52.132;5.442;2022-08-01T13:33:21;101979.13;;;21.44;54.10
71966;BME280;59836;52.132;5.442;2022-08-01T13:35:50;101977.38;;;21.48;51.86
71966;BME280;59836;52.132;5.442;2022-08-01T13:38:16;101976.72;;;21.51;51.90
71966;BME280;59836;52.132;5.442;2022-08-01T13:40:43;101974.47;;;21.53;49.01